To NAV CANADA Home Page Login to a new session Search on AWWS site Feedback and Comments Disclaimer Vers la page française équivalente Tips FAQ What's new on the site To the Forecasts and Observations / NOTAM section To "File a Flight Plan" website Publications and other links Update of the User's profile FIC Telephone Numbers My Weather Data Folder Route Weather Data Regional Weather Data Local Weather Data To the Forecasts and Observations / NOTAM section
Request Generated 08/30/2016 at 10:44:31 UTC . Weather information available at that time is displayed.

METAR/TAF

RED DEER REGIONAL/AB    

METAR CYQF 301000Z 16005KT 150V310 15SM BKN100 12/09 A3012 RMK AC5
SLP207 DENSITY ALT 3000FT=
METAR CYQF 300900Z 12006KT 15SM SCT100 BKN140 13/10 A3013 RMK AC3AC3
SLP209 DENSITY ALT 3100FT=
SPECI CYQF 300821Z VRB02KT 15SM BKN100 12/10 A3013 RMK AC6 SLP213
DENSITY ALT 3000FT=
METAR CYQF 300800Z VRB02KT 15SM TS VCSH SCT088 BKN140 13/10 A3014 RMK
AC4AC3 FRQ LTGIC E SLP213 DENSITY ALT 3100FT=

TAF AMD CYQF 300718Z 3007/3018 13010KT P6SM BKN120 TEMPO 3007/3010
VRB15G25KT 4SM TSRA BKN080CB
FM301000 13010KT P6SM BKN120 PROB30 3010/3013 1SM BR
FM301600 13012KT P6SM SCT040
RMK NXT FCST BY 301200Z=
Your time UTC time
Weather data provided by Environment Canada and NAV CANADA